W5IM Weather Reports


Display with metric or nautical units.
time (UTC)temp
F
wind
direction
speed
MPH
gust
MPH
rain 1hr
in
rain 24hr
in
rain mn
in
humidity
%
barometer
mb
20191016015644 79 150 10.0 15.0 0.00 0.00 0.00 73 1011.0
20191016005642 80 111 7.0 18.0 0.00 0.00 0.00 67 1010.4
20191015235641 84 141 10.0 22.0 0.00 0.00 0.00 59 1009.6
20191015225639 90 174 6.0 22.0 0.00 0.00 0.00 48 1009.2
20191015215707 95 122 14.0 21.0 0.00 0.00 0.00 41 1009.3
20191015205705 97 198 6.0 19.0 0.00 0.00 0.00 30 1009.3
20191015195703 98 156 8.0 13.0 0.00 0.00 0.00 35 1010.0
20191015185702 98 108 4.0 14.0 0.00 0.00 0.00 41 1011.0
20191015175700 93 173 5.0 14.0 0.00 0.00 0.00 51 1012.0
20191015165658 89 197 8.0 17.0 0.00 0.00 0.00 65 1012.6
20191015155657 86 193 7.0 18.0 0.00 0.00 0.00 80 1012.8
20191015145655 80 179 4.0 12.0 0.00 0.00 0.00 100 1013.4
20191015135653 77 219 4.0 5.0 0.00 0.00 0.00 100 1013.0
20191015125651 75 159 1.0 6.0 0.00 0.00 0.00 100 1012.3
20191015115650 75 193 6.0 10.0 0.00 0.00 0.00 100 1012.5
20191015105649 76 177 3.0 11.0 0.00 0.00 0.00 100 1012.4
20191015095646 76 183 6.0 13.0 0.00 0.00 0.00 100 1012.3
20191015085645 76 190 10.0 15.0 0.00 0.00 0.00 100 1012.4
20191015075643 75 165 1.0 9.0 0.00 0.00 0.00 100 1012.9
20191015065641 75 173 6.0 10.0 0.00 0.00 0.00 100 1012.8
20191015055639 75 62 2.0 11.0 0.00 0.00 0.00 98 1013.0
20191015035706 76 146 6.0 12.0 0.00 0.00 0.00 92 1013.3
20191015025704 76 141 8.0 12.0 0.00 0.00 0.00 85 1013.3